ALE weather

Alpine Casparis Municipal Airport
Alpine, Texas, United States

Public forecast

Using degrees Fahrenheit for public forecast. Weather courtesy of forecast.io.

Current aviation weather report (METAR) for Alpine Casparis Municipal Airport

Retrieved UTC (0 seconds ago):

Closest aviation forecast (TAF) to Alpine Casparis Municipal Airport

Closest forecast is Fort Stockton Pecos County Airport, 50.9 nm (94.3 km) NE. Retrieved 2019/12/06 06:22 UTC (4 hours ago):

TAF KFST 060520Z 0606/0706 30011KT P6SM SCT250 FM061700 36007KT P6SM SCT250